Spearfish Canyon, South Dakota
Current Conditions -  °F | °C
As of 5:35 PM on Sunday 21 Dec 2014 (Local Time) from KSPF Reporting Station
Overcast Overcast  
Wind Chill: 29°   Ceiling: 2600
Heat Index: 37°   Visibility: 10mi
Dew Point: 36°   Wind: 13mph
Humidity: 93%   Direction: 310°NW
Pressure: 29.47"   Gusts: NA
Location:  44.253°N, 103.912°W
Report Text: KSPF 220035Z AUTO 31011KT 10SM BKN026 OVC036 03/02 A2947 RMK AO2
Loading
Personal Weather Stations






























Interactive Weather Map New forecast layout! Learn more

10-Day Weather Forecast

Advertisements
Track Severe Weather on mobile